sensor_id;sensor_type;location;lat;lon;timestamp;P1;durP1;ratioP1;P2;durP2;ratioP2
17596;SDS011;8917;50.942;6.946;2023-01-05T00:01:00;12.77;;;3.50;;
17596;SDS011;8917;50.942;6.946;2023-01-05T00:03:27;13.43;;;3.40;;
17596;SDS011;8917;50.942;6.946;2023-01-05T00:05:57;14.30;;;3.50;;
17596;SDS011;8917;50.942;6.946;2023-01-05T00:08:26;10.10;;;3.53;;
17596;SDS011;8917;50.942;6.946;2023-01-05T00:10:53;11.87;;;3.47;;
17596;SDS011;8917;50.942;6.946;2023-01-05T00:13:37;12.80;;;3.30;;
17596;SDS011;8917;50.942;6.946;2023-01-05T00:16:28;11.10;;;3.00;;
17596;SDS011;8917;50.942;6.946;2023-01-05T00:19:12;11.70;;;3.50;;
17596;SDS011;8917;50.942;6.946;2023-01-05T00:21:57;13.63;;;2.90;;
17596;SDS011;8917;50.942;6.946;2023-01-05T00:24:43;15.03;;;3.70;;
17596;SDS011;8917;50.942;6.946;2023-01-05T00:27:10;11.73;;;3.37;;
17596;SDS011;8917;50.942;6.946;2023-01-05T00:29:37;12.90;;;3.37;;
17596;SDS011;8917;50.942;6.946;2023-01-05T00:32:05;14.27;;;3.70;;
17596;SDS011;8917;50.942;6.946;2023-01-05T00:34:32;16.93;;;3.77;;
17596;SDS011;8917;50.942;6.946;2023-01-05T00:36:59;11.60;;;3.87;;
17596;SDS011;8917;50.942;6.946;2023-01-05T00:39:26;13.80;;;3.77;;
17596;SDS011;8917;50.942;6.946;2023-01-05T00:41:55;15.53;;;3.90;;
17596;SDS011;8917;50.942;6.946;2023-01-05T00:44:22;9.63;;;2.93;;
17596;SDS011;8917;50.942;6.946;2023-01-05T00:46:49;9.23;;;2.93;;
17596;SDS011;8917;50.942;6.946;2023-01-05T00:49:16;14.43;;;3.67;;
17596;SDS011;8917;50.942;6.946;2023-01-05T00:51:43;8.50;;;2.47;;
17596;SDS011;8917;50.942;6.946;2023-01-05T00:54:11;11.90;;;3.17;;
17596;SDS011;8917;50.942;6.946;2023-01-05T00:56:38;12.70;;;3.03;;
17596;SDS011;8917;50.942;6.946;2023-01-05T00:59:06;11.97;;;3.90;;
17596;SDS011;8917;50.942;6.946;2023-01-05T01:01:34;11.60;;;2.90;;
17596;SDS011;8917;50.942;6.946;2023-01-05T01:04:01;13.10;;;3.37;;
17596;SDS011;8917;50.942;6.946;2023-01-05T01:06:28;10.53;;;3.07;;
17596;SDS011;8917;50.942;6.946;2023-01-05T01:08:56;13.40;;;3.40;;
17596;SDS011;8917;50.942;6.946;2023-01-05T01:11:24;12.93;;;3.37;;
17596;SDS011;8917;50.942;6.946;2023-01-05T01:13:51;14.73;;;3.77;;
17596;SDS011;8917;50.942;6.946;2023-01-05T01:16:19;13.87;;;3.73;;
17596;SDS011;8917;50.942;6.946;2023-01-05T01:18:47;15.67;;;3.20;;
17596;SDS011;8917;50.942;6.946;2023-01-05T01:21:15;13.60;;;3.23;;
17596;SDS011;8917;50.942;6.946;2023-01-05T01:23:42;11.63;;;3.70;;
17596;SDS011;8917;50.942;6.946;2023-01-05T01:26:11;13.53;;;3.50;;
17596;SDS011;8917;50.942;6.946;2023-01-05T01:28:38;11.50;;;3.50;;
17596;SDS011;8917;50.942;6.946;2023-01-05T01:31:05;10.67;;;3.37;;
17596;SDS011;8917;50.942;6.946;2023-01-05T01:33:37;13.80;;;3.30;;
17596;SDS011;8917;50.942;6.946;2023-01-05T01:36:04;10.77;;;3.10;;
17596;SDS011;8917;50.942;6.946;2023-01-05T01:38:32;10.17;;;3.43;;
17596;SDS011;8917;50.942;6.946;2023-01-05T01:40:59;14.97;;;3.50;;
17596;SDS011;8917;50.942;6.946;2023-01-05T01:43:40;12.00;;;3.13;;
17596;SDS011;8917;50.942;6.946;2023-01-05T01:46:08;12.03;;;3.00;;
17596;SDS011;8917;50.942;6.946;2023-01-05T01:48:36;14.73;;;3.50;;
17596;SDS011;8917;50.942;6.946;2023-01-05T01:51:05;13.13;;;3.40;;
17596;SDS011;8917;50.942;6.946;2023-01-05T01:53:36;12.53;;;3.60;;
17596;SDS011;8917;50.942;6.946;2023-01-05T01:56:05;10.37;;;3.27;;
17596;SDS011;8917;50.942;6.946;2023-01-05T01:58:33;13.70;;;3.73;;
17596;SDS011;8917;50.942;6.946;2023-01-05T02:01:01;11.27;;;2.90;;
17596;SDS011;8917;50.942;6.946;2023-01-05T02:03:28;13.10;;;3.37;;
17596;SDS011;8917;50.942;6.946;2023-01-05T02:05:57;13.23;;;3.30;;
17596;SDS011;8917;50.942;6.946;2023-01-05T02:08:25;13.00;;;3.37;;
17596;SDS011;8917;50.942;6.946;2023-01-05T02:10:56;16.60;;;3.57;;
17596;SDS011;8917;50.942;6.946;2023-01-05T02:13:31;12.10;;;3.33;;
17596;SDS011;8917;50.942;6.946;2023-01-05T02:16:06;11.07;;;4.23;;
17596;SDS011;8917;50.942;6.946;2023-01-05T02:18:39;15.37;;;3.23;;
17596;SDS011;8917;50.942;6.946;2023-01-05T02:21:16;11.13;;;3.40;;
17596;SDS011;8917;50.942;6.946;2023-01-05T02:23:48;12.07;;;3.30;;
17596;SDS011;8917;50.942;6.946;2023-01-05T02:29:14;13.80;;;4.43;;
17596;SDS011;8917;50.942;6.946;2023-01-05T02:31:53;14.87;;;3.53;;
17596;SDS011;8917;50.942;6.946;2023-01-05T02:34:22;17.77;;;4.10;;
17596;SDS011;8917;50.942;6.946;2023-01-05T02:36:53;15.67;;;3.37;;
17596;SDS011;8917;50.942;6.946;2023-01-05T02:39:23;11.23;;;3.17;;
17596;SDS011;8917;50.942;6.946;2023-01-05T02:41:52;15.47;;;4.03;;
17596;SDS011;8917;50.942;6.946;2023-01-05T02:44:21;12.93;;;3.80;;
17596;SDS011;8917;50.942;6.946;2023-01-05T02:46:59;10.87;;;3.20;;
17596;SDS011;8917;50.942;6.946;2023-01-05T02:49:26;12.67;;;3.70;;
17596;SDS011;8917;50.942;6.946;2023-01-05T02:51:55;15.20;;;3.83;;
17596;SDS011;8917;50.942;6.946;2023-01-05T02:54:25;16.97;;;4.20;;
17596;SDS011;8917;50.942;6.946;2023-01-05T02:56:54;11.13;;;3.07;;
17596;SDS011;8917;50.942;6.946;2023-01-05T02:59:23;14.67;;;3.47;;
17596;SDS011;8917;50.942;6.946;2023-01-05T03:01:53;13.70;;;3.63;;
17596;SDS011;8917;50.942;6.946;2023-01-05T03:04:24;14.23;;;3.30;;
17596;SDS011;8917;50.942;6.946;2023-01-05T03:06:55;16.37;;;3.50;;
17596;SDS011;8917;50.942;6.946;2023-01-05T03:09:26;14.50;;;3.90;;
17596;SDS011;8917;50.942;6.946;2023-01-05T03:11:56;15.67;;;4.10;;
17596;SDS011;8917;50.942;6.946;2023-01-05T03:14:53;15.20;;;4.03;;
17596;SDS011;8917;50.942;6.946;2023-01-05T03:17:24;18.03;;;3.67;;
17596;SDS011;8917;50.942;6.946;2023-01-05T03:19:54;18.30;;;4.57;;
17596;SDS011;8917;50.942;6.946;2023-01-05T03:22:20;18.17;;;3.67;;
17596;SDS011;8917;50.942;6.946;2023-01-05T03:25:08;16.33;;;3.97;;
17596;SDS011;8917;50.942;6.946;2023-01-05T03:27:53;13.27;;;3.37;;
17596;SDS011;8917;50.942;6.946;2023-01-05T03:30:41;13.43;;;3.47;;
17596;SDS011;8917;50.942;6.946;2023-01-05T03:33:31;14.70;;;4.37;;
17596;SDS011;8917;50.942;6.946;2023-01-05T03:36:22;14.03;;;3.23;;
17596;SDS011;8917;50.942;6.946;2023-01-05T03:38:50;13.57;;;3.80;;
17596;SDS011;8917;50.942;6.946;2023-01-05T03:41:19;16.23;;;3.83;;
17596;SDS011;8917;50.942;6.946;2023-01-05T03:43:48;15.93;;;3.63;;
17596;SDS011;8917;50.942;6.946;2023-01-05T03:46:16;17.23;;;4.57;;
17596;SDS011;8917;50.942;6.946;2023-01-05T03:48:44;20.43;;;4.30;;
17596;SDS011;8917;50.942;6.946;2023-01-05T03:51:11;17.37;;;4.00;;
17596;SDS011;8917;50.942;6.946;2023-01-05T03:53:40;13.60;;;3.30;;
17596;SDS011;8917;50.942;6.946;2023-01-05T03:56:07;14.67;;;3.63;;
17596;SDS011;8917;50.942;6.946;2023-01-05T03:58:34;16.17;;;3.47;;
17596;SDS011;8917;50.942;6.946;2023-01-05T04:01:01;13.63;;;3.53;;
17596;SDS011;8917;50.942;6.946;2023-01-05T04:03:29;16.47;;;3.63;;
17596;SDS011;8917;50.942;6.946;2023-01-05T04:05:56;14.17;;;3.63;;
17596;SDS011;8917;50.942;6.946;2023-01-05T04:08:23;13.90;;;3.43;;
17596;SDS011;8917;50.942;6.946;2023-01-05T04:10:52;17.50;;;3.87;;
17596;SDS011;8917;50.942;6.946;2023-01-05T04:13:20;16.37;;;4.47;;
17596;SDS011;8917;50.942;6.946;2023-01-05T04:15:47;10.17;;;3.20;;
17596;SDS011;8917;50.942;6.946;2023-01-05T04:18:14;18.37;;;3.40;;
17596;SDS011;8917;50.942;6.946;2023-01-05T04:20:42;16.43;;;3.57;;
17596;SDS011;8917;50.942;6.946;2023-01-05T04:23:09;11.37;;;3.30;;
17596;SDS011;8917;50.942;6.946;2023-01-05T04:25:36;20.40;;;4.10;;
17596;SDS011;8917;50.942;6.946;2023-01-05T04:28:05;13.60;;;3.47;;
17596;SDS011;8917;50.942;6.946;2023-01-05T04:30:32;12.90;;;3.43;;
17596;SDS011;8917;50.942;6.946;2023-01-05T04:32:59;11.23;;;3.33;;
17596;SDS011;8917;50.942;6.946;2023-01-05T04:35:26;19.33;;;3.77;;
17596;SDS011;8917;50.942;6.946;2023-01-05T04:37:53;14.87;;;4.03;;
17596;SDS011;8917;50.942;6.946;2023-01-05T04:40:20;16.37;;;3.90;;
17596;SDS011;8917;50.942;6.946;2023-01-05T04:42:48;15.23;;;4.23;;
17596;SDS011;8917;50.942;6.946;2023-01-05T04:45:16;13.37;;;3.53;;
17596;SDS011;8917;50.942;6.946;2023-01-05T04:47:43;17.27;;;4.57;;
17596;SDS011;8917;50.942;6.946;2023-01-05T04:50:10;9.10;;;2.80;;
17596;SDS011;8917;50.942;6.946;2023-01-05T04:52:38;10.47;;;3.50;;
17596;SDS011;8917;50.942;6.946;2023-01-05T04:55:05;12.53;;;3.53;;
17596;SDS011;8917;50.942;6.946;2023-01-05T04:57:32;15.40;;;4.03;;
17596;SDS011;8917;50.942;6.946;2023-01-05T04:59:59;12.20;;;3.63;;
17596;SDS011;8917;50.942;6.946;2023-01-05T05:02:29;17.30;;;3.97;;
17596;SDS011;8917;50.942;6.946;2023-01-05T05:04:56;12.10;;;4.00;;
17596;SDS011;8917;50.942;6.946;2023-01-05T05:07:23;15.60;;;3.93;;
17596;SDS011;8917;50.942;6.946;2023-01-05T05:09:51;13.30;;;3.80;;
17596;SDS011;8917;50.942;6.946;2023-01-05T05:12:18;20.37;;;3.80;;
17596;SDS011;8917;50.942;6.946;2023-01-05T05:14:45;18.47;;;4.27;;
17596;SDS011;8917;50.942;6.946;2023-01-05T05:17:12;13.40;;;3.67;;
17596;SDS011;8917;50.942;6.946;2023-01-05T05:19:41;13.77;;;3.87;;
17596;SDS011;8917;50.942;6.946;2023-01-05T05:22:08;14.07;;;3.87;;
17596;SDS011;8917;50.942;6.946;2023-01-05T05:24:36;13.80;;;3.43;;
17596;SDS011;8917;50.942;6.946;2023-01-05T05:27:03;17.60;;;3.87;;
17596;SDS011;8917;50.942;6.946;2023-01-05T05:29:30;16.03;;;3.63;;
17596;SDS011;8917;50.942;6.946;2023-01-05T05:31:58;12.43;;;3.73;;
17596;SDS011;8917;50.942;6.946;2023-01-05T05:34:25;15.27;;;4.07;;
17596;SDS011;8917;50.942;6.946;2023-01-05T05:36:53;14.97;;;3.57;;
17596;SDS011;8917;50.942;6.946;2023-01-05T05:39:21;13.97;;;3.70;;
17596;SDS011;8917;50.942;6.946;2023-01-05T05:41:48;14.07;;;3.33;;
17596;SDS011;8917;50.942;6.946;2023-01-05T05:44:15;12.60;;;3.73;;
17596;SDS011;8917;50.942;6.946;2023-01-05T05:46:42;12.93;;;3.13;;
17596;SDS011;8917;50.942;6.946;2023-01-05T05:49:09;13.37;;;4.47;;
17596;SDS011;8917;50.942;6.946;2023-01-05T05:51:37;13.83;;;3.40;;
17596;SDS011;8917;50.942;6.946;2023-01-05T05:54:05;14.80;;;4.27;;
17596;SDS011;8917;50.942;6.946;2023-01-05T05:56:33;17.43;;;4.00;;
17596;SDS011;8917;50.942;6.946;2023-01-05T05:59:00;14.57;;;4.10;;
17596;SDS011;8917;50.942;6.946;2023-01-05T06:01:27;17.63;;;3.80;;
17596;SDS011;8917;50.942;6.946;2023-01-05T06:03:54;14.70;;;4.23;;
17596;SDS011;8917;50.942;6.946;2023-01-05T06:06:21;14.83;;;4.07;;
17596;SDS011;8917;50.942;6.946;2023-01-05T06:08:48;16.00;;;4.13;;
17596;SDS011;8917;50.942;6.946;2023-01-05T06:11:17;15.37;;;3.90;;
17596;SDS011;8917;50.942;6.946;2023-01-05T06:13:44;11.27;;;3.40;;
17596;SDS011;8917;50.942;6.946;2023-01-05T06:16:12;16.43;;;4.67;;
17596;SDS011;8917;50.942;6.946;2023-01-05T06:18:40;18.73;;;4.90;;
17596;SDS011;8917;50.942;6.946;2023-01-05T06:21:07;17.00;;;3.93;;
17596;SDS011;8917;50.942;6.946;2023-01-05T06:23:34;18.80;;;4.13;;
17596;SDS011;8917;50.942;6.946;2023-01-05T06:26:01;23.20;;;5.37;;
17596;SDS011;8917;50.942;6.946;2023-01-05T06:28:30;13.33;;;4.40;;
17596;SDS011;8917;50.942;6.946;2023-01-05T06:30:57;15.53;;;3.63;;
17596;SDS011;8917;50.942;6.946;2023-01-05T06:33:24;16.63;;;3.60;;
17596;SDS011;8917;50.942;6.946;2023-01-05T06:35:51;17.00;;;4.03;;
17596;SDS011;8917;50.942;6.946;2023-01-05T06:38:19;15.03;;;4.00;;
17596;SDS011;8917;50.942;6.946;2023-01-05T06:40:46;19.13;;;4.07;;
17596;SDS011;8917;50.942;6.946;2023-01-05T06:43:13;18.70;;;4.40;;
17596;SDS011;8917;50.942;6.946;2023-01-05T06:45:42;16.73;;;4.70;;
17596;SDS011;8917;50.942;6.946;2023-01-05T06:48:10;16.80;;;4.13;;
17596;SDS011;8917;50.942;6.946;2023-01-05T06:50:37;17.63;;;4.43;;
17596;SDS011;8917;50.942;6.946;2023-01-05T06:53:04;19.20;;;4.97;;
17596;SDS011;8917;50.942;6.946;2023-01-05T06:55:31;19.17;;;3.80;;
17596;SDS011;8917;50.942;6.946;2023-01-05T06:57:59;18.93;;;4.10;;
17596;SDS011;8917;50.942;6.946;2023-01-05T07:00:26;16.97;;;4.40;;
17596;SDS011;8917;50.942;6.946;2023-01-05T07:02:55;16.50;;;5.57;;
17596;SDS011;8917;50.942;6.946;2023-01-05T07:05:22;15.43;;;4.37;;
17596;SDS011;8917;50.942;6.946;2023-01-05T07:07:49;20.63;;;4.10;;
17596;SDS011;8917;50.942;6.946;2023-01-05T07:10:17;20.03;;;4.97;;
17596;SDS011;8917;50.942;6.946;2023-01-05T07:12:44;18.37;;;4.93;;
17596;SDS011;8917;50.942;6.946;2023-01-05T07:15:11;23.10;;;4.20;;
17596;SDS011;8917;50.942;6.946;2023-01-05T07:17:39;15.97;;;3.87;;
17596;SDS011;8917;50.942;6.946;2023-01-05T07:20:07;15.80;;;4.07;;
17596;SDS011;8917;50.942;6.946;2023-01-05T07:22:35;20.00;;;4.77;;
17596;SDS011;8917;50.942;6.946;2023-01-05T07:25:02;18.67;;;4.20;;
17596;SDS011;8917;50.942;6.946;2023-01-05T07:27:29;21.03;;;4.43;;
17596;SDS011;8917;50.942;6.946;2023-01-05T07:29:56;17.00;;;4.50;;
17596;SDS011;8917;50.942;6.946;2023-01-05T07:32:24;16.70;;;4.07;;
17596;SDS011;8917;50.942;6.946;2023-01-05T07:34:51;17.10;;;4.77;;
17596;SDS011;8917;50.942;6.946;2023-01-05T07:37:19;18.03;;;5.03;;
17596;SDS011;8917;50.942;6.946;2023-01-05T07:39:48;18.97;;;4.83;;
17596;SDS011;8917;50.942;6.946;2023-01-05T07:42:15;24.23;;;5.27;;
17596;SDS011;8917;50.942;6.946;2023-01-05T07:44:42;20.33;;;4.80;;
17596;SDS011;8917;50.942;6.946;2023-01-05T07:47:10;19.13;;;5.70;;
17596;SDS011;8917;50.942;6.946;2023-01-05T07:49:37;19.10;;;5.23;;
17596;SDS011;8917;50.942;6.946;2023-01-05T07:52:04;14.70;;;5.07;;
17596;SDS011;8917;50.942;6.946;2023-01-05T07:54:33;16.87;;;4.50;;
17596;SDS011;8917;50.942;6.946;2023-01-05T07:57:01;18.40;;;4.20;;
17596;SDS011;8917;50.942;6.946;2023-01-05T07:59:28;18.37;;;4.47;;
17596;SDS011;8917;50.942;6.946;2023-01-05T08:01:55;21.27;;;4.60;;
17596;SDS011;8917;50.942;6.946;2023-01-05T08:04:22;15.23;;;4.53;;
17596;SDS011;8917;50.942;6.946;2023-01-05T08:06:50;15.70;;;4.70;;
17596;SDS011;8917;50.942;6.946;2023-01-05T08:09:17;16.73;;;4.90;;
17596;SDS011;8917;50.942;6.946;2023-01-05T08:12:03;18.40;;;4.30;;
17596;SDS011;8917;50.942;6.946;2023-01-05T08:14:30;16.97;;;4.20;;
17596;SDS011;8917;50.942;6.946;2023-01-05T08:16:57;15.97;;;4.53;;
17596;SDS011;8917;50.942;6.946;2023-01-05T08:19:25;17.33;;;4.40;;
17596;SDS011;8917;50.942;6.946;2023-01-05T08:21:52;18.53;;;5.10;;
17596;SDS011;8917;50.942;6.946;2023-01-05T08:24:19;17.40;;;4.80;;
17596;SDS011;8917;50.942;6.946;2023-01-05T08:26:48;15.20;;;4.13;;
17596;SDS011;8917;50.942;6.946;2023-01-05T08:29:17;18.93;;;4.67;;
17596;SDS011;8917;50.942;6.946;2023-01-05T08:31:44;18.17;;;4.97;;
17596;SDS011;8917;50.942;6.946;2023-01-05T08:34:11;15.37;;;4.00;;
17596;SDS011;8917;50.942;6.946;2023-01-05T08:36:39;21.40;;;4.90;;
17596;SDS011;8917;50.942;6.946;2023-01-05T08:39:06;17.73;;;5.23;;
17596;SDS011;8917;50.942;6.946;2023-01-05T08:41:36;17.47;;;4.93;;
17596;SDS011;8917;50.942;6.946;2023-01-05T08:44:04;20.60;;;5.30;;
17596;SDS011;8917;50.942;6.946;2023-01-05T08:46:34;17.70;;;5.17;;
17596;SDS011;8917;50.942;6.946;2023-01-05T08:49:02;19.90;;;4.73;;
17596;SDS011;8917;50.942;6.946;2023-01-05T08:51:30;25.30;;;5.63;;
17596;SDS011;8917;50.942;6.946;2023-01-05T08:53:57;22.30;;;5.07;;
17596;SDS011;8917;50.942;6.946;2023-01-05T08:56:25;23.50;;;5.33;;
17596;SDS011;8917;50.942;6.946;2023-01-05T08:58:52;22.00;;;5.23;;
17596;SDS011;8917;50.942;6.946;2023-01-05T09:01:21;20.33;;;5.33;;
17596;SDS011;8917;50.942;6.946;2023-01-05T09:03:50;22.80;;;5.73;;
17596;SDS011;8917;50.942;6.946;2023-01-05T09:06:17;20.97;;;5.00;;
17596;SDS011;8917;50.942;6.946;2023-01-05T09:08:44;18.60;;;4.43;;
17596;SDS011;8917;50.942;6.946;2023-01-05T09:11:13;20.83;;;5.10;;
17596;SDS011;8917;50.942;6.946;2023-01-05T09:13:40;21.47;;;5.03;;
17596;SDS011;8917;50.942;6.946;2023-01-05T09:16:08;21.07;;;4.70;;
17596;SDS011;8917;50.942;6.946;2023-01-05T09:18:36;18.07;;;4.37;;
17596;SDS011;8917;50.942;6.946;2023-01-05T09:21:05;24.17;;;5.30;;
17596;SDS011;8917;50.942;6.946;2023-01-05T09:23:33;18.97;;;4.77;;
17596;SDS011;8917;50.942;6.946;2023-01-05T09:26:02;20.03;;;4.90;;
17596;SDS011;8917;50.942;6.946;2023-01-05T09:28:29;17.33;;;5.57;;
17596;SDS011;8917;50.942;6.946;2023-01-05T09:30:56;23.80;;;4.70;;
17596;SDS011;8917;50.942;6.946;2023-01-05T09:33:23;23.33;;;4.60;;
17596;SDS011;8917;50.942;6.946;2023-01-05T09:35:54;20.20;;;5.40;;
17596;SDS011;8917;50.942;6.946;2023-01-05T09:38:22;21.17;;;5.60;;
17596;SDS011;8917;50.942;6.946;2023-01-05T09:40:50;19.17;;;5.37;;
17596;SDS011;8917;50.942;6.946;2023-01-05T09:43:21;23.27;;;5.30;;
17596;SDS011;8917;50.942;6.946;2023-01-05T09:45:48;19.60;;;5.43;;
17596;SDS011;8917;50.942;6.946;2023-01-05T09:48:16;17.87;;;5.03;;
17596;SDS011;8917;50.942;6.946;2023-01-05T09:50:44;21.50;;;5.03;;
17596;SDS011;8917;50.942;6.946;2023-01-05T09:53:13;24.90;;;5.47;;
17596;SDS011;8917;50.942;6.946;2023-01-05T09:55:42;28.13;;;6.53;;
17596;SDS011;8917;50.942;6.946;2023-01-05T09:58:11;20.63;;;4.90;;
17596;SDS011;8917;50.942;6.946;2023-01-05T10:00:40;19.50;;;5.43;;
17596;SDS011;8917;50.942;6.946;2023-01-05T10:03:08;22.83;;;5.73;;
17596;SDS011;8917;50.942;6.946;2023-01-05T10:05:38;26.53;;;4.83;;
17596;SDS011;8917;50.942;6.946;2023-01-05T10:08:09;24.40;;;5.03;;
17596;SDS011;8917;50.942;6.946;2023-01-05T10:10:42;17.00;;;4.87;;
17596;SDS011;8917;50.942;6.946;2023-01-05T10:13:16;23.70;;;7.50;;
17596;SDS011;8917;50.942;6.946;2023-01-05T10:15:45;21.60;;;5.63;;
17596;SDS011;8917;50.942;6.946;2023-01-05T10:18:16;19.90;;;5.40;;
17596;SDS011;8917;50.942;6.946;2023-01-05T10:20:47;27.67;;;5.37;;
17596;SDS011;8917;50.942;6.946;2023-01-05T10:23:21;24.47;;;5.33;;
17596;SDS011;8917;50.942;6.946;2023-01-05T10:25:53;27.80;;;5.43;;
17596;SDS011;8917;50.942;6.946;2023-01-05T10:28:25;23.70;;;5.57;;
17596;SDS011;8917;50.942;6.946;2023-01-05T10:30:56;22.30;;;5.27;;
17596;SDS011;8917;50.942;6.946;2023-01-05T10:33:27;24.27;;;5.17;;
17596;SDS011;8917;50.942;6.946;2023-01-05T10:36:00;16.73;;;4.87;;
17596;SDS011;8917;50.942;6.946;2023-01-05T10:38:34;27.40;;;5.27;;
17596;SDS011;8917;50.942;6.946;2023-01-05T10:41:05;21.47;;;5.77;;
17596;SDS011;8917;50.942;6.946;2023-01-05T10:43:40;16.63;;;5.20;;
17596;SDS011;8917;50.942;6.946;2023-01-05T10:46:12;20.57;;;4.90;;
17596;SDS011;8917;50.942;6.946;2023-01-05T10:48:40;24.67;;;6.43;;
17596;SDS011;8917;50.942;6.946;2023-01-05T10:51:08;19.23;;;4.90;;
17596;SDS011;8917;50.942;6.946;2023-01-05T10:53:36;20.37;;;4.70;;
17596;SDS011;8917;50.942;6.946;2023-01-05T10:56:09;19.03;;;5.57;;
17596;SDS011;8917;50.942;6.946;2023-01-05T10:58:39;18.70;;;4.40;;
17596;SDS011;8917;50.942;6.946;2023-01-05T11:01:15;20.60;;;5.33;;
17596;SDS011;8917;50.942;6.946;2023-01-05T11:03:46;20.53;;;5.83;;
17596;SDS011;8917;50.942;6.946;2023-01-05T11:06:17;24.50;;;5.70;;
17596;SDS011;8917;50.942;6.946;2023-01-05T11:08:45;23.63;;;5.60;;
17596;SDS011;8917;50.942;6.946;2023-01-05T11:11:20;22.63;;;5.70;;
17596;SDS011;8917;50.942;6.946;2023-01-05T11:13:48;21.27;;;5.30;;
17596;SDS011;8917;50.942;6.946;2023-01-05T11:16:16;20.67;;;4.60;;
17596;SDS011;8917;50.942;6.946;2023-01-05T11:18:46;20.00;;;5.20;;
17596;SDS011;8917;50.942;6.946;2023-01-05T11:21:15;17.17;;;4.30;;
17596;SDS011;8917;50.942;6.946;2023-01-05T11:23:42;13.43;;;4.70;;
17596;SDS011;8917;50.942;6.946;2023-01-05T11:26:10;17.57;;;5.07;;
17596;SDS011;8917;50.942;6.946;2023-01-05T11:28:49;16.23;;;4.10;;
17596;SDS011;8917;50.942;6.946;2023-01-05T11:31:22;16.20;;;4.63;;
17596;SDS011;8917;50.942;6.946;2023-01-05T11:33:54;19.97;;;4.40;;
17596;SDS011;8917;50.942;6.946;2023-01-05T11:36:22;17.33;;;4.20;;
17596;SDS011;8917;50.942;6.946;2023-01-05T11:38:50;18.73;;;4.80;;
17596;SDS011;8917;50.942;6.946;2023-01-05T11:41:20;22.03;;;4.50;;
17596;SDS011;8917;50.942;6.946;2023-01-05T11:43:49;14.43;;;4.87;;
17596;SDS011;8917;50.942;6.946;2023-01-05T11:46:17;18.20;;;5.30;;
17596;SDS011;8917;50.942;6.946;2023-01-05T11:48:47;20.00;;;4.93;;
17596;SDS011;8917;50.942;6.946;2023-01-05T11:51:31;18.00;;;5.00;;
17596;SDS011;8917;50.942;6.946;2023-01-05T11:53:58;12.73;;;3.93;;
17596;SDS011;8917;50.942;6.946;2023-01-05T11:56:26;14.67;;;4.07;;
17596;SDS011;8917;50.942;6.946;2023-01-05T11:58:54;16.73;;;4.23;;
17596;SDS011;8917;50.942;6.946;2023-01-05T12:01:31;16.13;;;4.50;;
17596;SDS011;8917;50.942;6.946;2023-01-05T12:04:09;18.50;;;5.17;;
17596;SDS011;8917;50.942;6.946;2023-01-05T12:06:46;15.97;;;4.13;;
17596;SDS011;8917;50.942;6.946;2023-01-05T12:09:18;16.77;;;4.10;;
17596;SDS011;8917;50.942;6.946;2023-01-05T12:11:50;18.43;;;5.07;;
17596;SDS011;8917;50.942;6.946;2023-01-05T12:14:24;17.17;;;4.97;;
17596;SDS011;8917;50.942;6.946;2023-01-05T12:16:56;16.67;;;4.33;;
17596;SDS011;8917;50.942;6.946;2023-01-05T12:19:27;15.47;;;4.23;;
17596;SDS011;8917;50.942;6.946;2023-01-05T12:22:05;12.83;;;3.90;;
17596;SDS011;8917;50.942;6.946;2023-01-05T12:24:40;12.33;;;4.13;;
17596;SDS011;8917;50.942;6.946;2023-01-05T12:27:14;18.20;;;4.90;;
17596;SDS011;8917;50.942;6.946;2023-01-05T12:29:53;16.77;;;3.87;;
17596;SDS011;8917;50.942;6.946;2023-01-05T12:32:29;13.03;;;4.20;;
17596;SDS011;8917;50.942;6.946;2023-01-05T12:35:15;15.43;;;4.13;;
17596;SDS011;8917;50.942;6.946;2023-01-05T12:37:59;13.47;;;4.23;;
17596;SDS011;8917;50.942;6.946;2023-01-05T12:40:37;16.27;;;4.40;;
17596;SDS011;8917;50.942;6.946;2023-01-05T12:43:08;13.37;;;4.00;;
17596;SDS011;8917;50.942;6.946;2023-01-05T12:45:47;12.43;;;3.77;;
17596;SDS011;8917;50.942;6.946;2023-01-05T12:48:16;14.43;;;3.77;;
17596;SDS011;8917;50.942;6.946;2023-01-05T12:50:45;16.03;;;4.00;;
17596;SDS011;8917;50.942;6.946;2023-01-05T12:53:16;16.60;;;3.43;;
17596;SDS011;8917;50.942;6.946;2023-01-05T12:55:44;14.20;;;4.23;;
17596;SDS011;8917;50.942;6.946;2023-01-05T12:58:14;12.30;;;4.53;;
17596;SDS011;8917;50.942;6.946;2023-01-05T13:00:42;17.93;;;3.93;;
17596;SDS011;8917;50.942;6.946;2023-01-05T13:03:18;18.47;;;4.00;;
17596;SDS011;8917;50.942;6.946;2023-01-05T13:05:48;18.77;;;4.40;;
17596;SDS011;8917;50.942;6.946;2023-01-05T13:08:19;16.73;;;4.73;;
17596;SDS011;8917;50.942;6.946;2023-01-05T13:10:48;14.27;;;4.40;;
17596;SDS011;8917;50.942;6.946;2023-01-05T13:13:18;17.77;;;4.37;;
17596;SDS011;8917;50.942;6.946;2023-01-05T13:15:50;16.37;;;4.60;;
17596;SDS011;8917;50.942;6.946;2023-01-05T13:18:22;17.40;;;4.03;;
17596;SDS011;8917;50.942;6.946;2023-01-05T13:20:51;13.90;;;4.23;;
17596;SDS011;8917;50.942;6.946;2023-01-05T13:23:20;13.47;;;4.27;;
17596;SDS011;8917;50.942;6.946;2023-01-05T13:25:50;14.77;;;4.00;;
17596;SDS011;8917;50.942;6.946;2023-01-05T13:28:19;19.20;;;4.37;;
17596;SDS011;8917;50.942;6.946;2023-01-05T13:30:50;13.90;;;3.67;;
17596;SDS011;8917;50.942;6.946;2023-01-05T13:33:33;13.93;;;4.47;;
17596;SDS011;8917;50.942;6.946;2023-01-05T13:36:07;18.63;;;4.13;;
17596;SDS011;8917;50.942;6.946;2023-01-05T13:38:52;16.90;;;4.40;;
17596;SDS011;8917;50.942;6.946;2023-01-05T13:41:23;19.60;;;5.57;;
17596;SDS011;8917;50.942;6.946;2023-01-05T13:46:46;17.20;;;4.17;;
17596;SDS011;8917;50.942;6.946;2023-01-05T13:49:30;18.70;;;4.37;;
17596;SDS011;8917;50.942;6.946;2023-01-05T13:52:00;17.53;;;4.63;;
17596;SDS011;8917;50.942;6.946;2023-01-05T13:54:33;14.93;;;4.17;;
17596;SDS011;8917;50.942;6.946;2023-01-05T13:57:05;11.30;;;3.90;;
17596;SDS011;8917;50.942;6.946;2023-01-05T13:59:34;18.40;;;4.60;;
17596;SDS011;8917;50.942;6.946;2023-01-05T14:02:01;19.27;;;4.33;;
17596;SDS011;8917;50.942;6.946;2023-01-05T14:04:32;17.53;;;4.73;;
17596;SDS011;8917;50.942;6.946;2023-01-05T14:07:01;17.33;;;4.47;;
17596;SDS011;8917;50.942;6.946;2023-01-05T14:09:31;19.63;;;4.97;;
17596;SDS011;8917;50.942;6.946;2023-01-05T14:14:59;19.03;;;5.07;;
17596;SDS011;8917;50.942;6.946;2023-01-05T14:25:49;20.50;;;4.97;;
17596;SDS011;8917;50.942;6.946;2023-01-05T14:28:19;20.87;;;5.10;;
17596;SDS011;8917;50.942;6.946;2023-01-05T14:30:46;20.20;;;4.97;;
17596;SDS011;8917;50.942;6.946;2023-01-05T14:33:15;17.03;;;4.57;;
17596;SDS011;8917;50.942;6.946;2023-01-05T14:35:42;20.13;;;5.37;;
17596;SDS011;8917;50.942;6.946;2023-01-05T14:38:14;20.63;;;5.43;;
17596;SDS011;8917;50.942;6.946;2023-01-05T14:40:42;21.73;;;4.97;;
17596;SDS011;8917;50.942;6.946;2023-01-05T14:43:21;21.83;;;4.57;;
17596;SDS011;8917;50.942;6.946;2023-01-05T14:45:57;19.50;;;5.10;;
17596;SDS011;8917;50.942;6.946;2023-01-05T14:48:26;25.27;;;5.37;;
17596;SDS011;8917;50.942;6.946;2023-01-05T14:51:05;22.73;;;5.07;;
17596;SDS011;8917;50.942;6.946;2023-01-05T14:53:40;18.03;;;4.63;;
17596;SDS011;8917;50.942;6.946;2023-01-05T14:56:18;23.47;;;5.43;;
17596;SDS011;8917;50.942;6.946;2023-01-05T14:58:51;15.33;;;4.37;;
17596;SDS011;8917;50.942;6.946;2023-01-05T15:01:20;20.87;;;4.87;;
17596;SDS011;8917;50.942;6.946;2023-01-05T15:03:49;18.57;;;4.83;;
17596;SDS011;8917;50.942;6.946;2023-01-05T15:06:17;21.47;;;4.33;;
17596;SDS011;8917;50.942;6.946;2023-01-05T15:08:55;19.97;;;5.03;;
17596;SDS011;8917;50.942;6.946;2023-01-05T15:11:31;19.80;;;5.23;;
17596;SDS011;8917;50.942;6.946;2023-01-05T15:14:11;17.53;;;4.33;;
17596;SDS011;8917;50.942;6.946;2023-01-05T15:17:02;20.97;;;5.07;;
17596;SDS011;8917;50.942;6.946;2023-01-05T15:19:38;17.87;;;5.57;;
17596;SDS011;8917;50.942;6.946;2023-01-05T15:22:13;19.70;;;4.90;;